Hamlin, Pennsylvania
Current Conditions -  °F | °C
As of 3:22 AM on Monday 26 Jan 2015 (Local Time) from KAVP Reporting Station
Light Snow Light Snow  
Wind Chill: 10°   Ceiling: 2800
Heat Index: 18°   Visibility: 2mi
Dew Point:   Wind: 6mph
Humidity: 65%   Direction: 60°ENE
Pressure: 29.94"   Gusts: NA
Location:  41.4°N, 75.4°W
Report Text: KAVP 260822Z AUTO 06005KT 2SM -SN BKN028 OVC046 M08/M13 A2994 RMK AO2 SNB0758 P0000 T10781133
Loading
Personal Weather Stations






























Interactive Weather Map New forecast layout! Learn more

10-Day Weather Forecast

Advertisements
Track Severe Weather on mobile